Atkinson, Maine
Current Conditions -  °F | °C
As of 4:27 AM on Sunday 26 Oct 2014 (Local Time) from KBGR Reporting Station
Light Fog Light Fog  
Wind Chill: 45°   Ceiling: 9000
Heat Index: 45°   Visibility: 0.75mi
Dew Point: 44°   Wind: 0mph
Humidity: 97%   Direction: NA
Pressure: 29.37"   Gusts: NA
Location:  45.2129°N, 69.1615°W
Report Text: KBGR 260827Z 00000KT 3/4SM R15/1400V3000FT BCFG SCT005 BKN090 07/07 A2937 RMK AO2 VIS E 4 T00720067
Loading
Personal Weather Stations






























Interactive Weather Map
Tropical Storm Tracking
New forecast layout! Learn more

10-Day Weather Forecast

Advertisements
Track Severe Weather on mobile